sensor_id;sensor_type;location;lat;lon;timestamp;P1;durP1;ratioP1;P2;durP2;ratioP2
3433;SDS011;1730;41.932;25.548;2023-01-24T00:01:14;33.40;;;19.27;;
3433;SDS011;1730;41.932;25.548;2023-01-24T00:03:40;40.10;;;19.47;;
3433;SDS011;1730;41.932;25.548;2023-01-24T00:06:06;33.50;;;18.70;;
3433;SDS011;1730;41.932;25.548;2023-01-24T00:08:32;32.00;;;18.77;;
3433;SDS011;1730;41.932;25.548;2023-01-24T00:11:02;32.57;;;18.70;;
3433;SDS011;1730;41.932;25.548;2023-01-24T00:13:29;34.93;;;19.40;;
3433;SDS011;1730;41.932;25.548;2023-01-24T00:16:05;34.40;;;18.50;;
3433;SDS011;1730;41.932;25.548;2023-01-24T00:18:32;36.07;;;18.73;;
3433;SDS011;1730;41.932;25.548;2023-01-24T00:21:03;32.97;;;17.87;;
3433;SDS011;1730;41.932;25.548;2023-01-24T00:23:40;31.53;;;17.13;;
3433;SDS011;1730;41.932;25.548;2023-01-24T00:26:11;26.73;;;15.80;;
3433;SDS011;1730;41.932;25.548;2023-01-24T00:28:38;41.87;;;19.10;;
3433;SDS011;1730;41.932;25.548;2023-01-24T00:31:04;29.97;;;15.60;;
3433;SDS011;1730;41.932;25.548;2023-01-24T00:33:31;32.73;;;16.73;;
3433;SDS011;1730;41.932;25.548;2023-01-24T00:35:58;34.93;;;17.07;;
3433;SDS011;1730;41.932;25.548;2023-01-24T00:38:23;39.40;;;15.40;;
3433;SDS011;1730;41.932;25.548;2023-01-24T00:40:50;27.27;;;15.13;;
3433;SDS011;1730;41.932;25.548;2023-01-24T00:43:15;36.27;;;16.37;;
3433;SDS011;1730;41.932;25.548;2023-01-24T00:45:43;27.90;;;15.80;;
3433;SDS011;1730;41.932;25.548;2023-01-24T00:48:11;30.90;;;15.23;;
3433;SDS011;1730;41.932;25.548;2023-01-24T00:50:37;29.60;;;14.83;;
3433;SDS011;1730;41.932;25.548;2023-01-24T00:53:03;33.50;;;15.77;;
3433;SDS011;1730;41.932;25.548;2023-01-24T00:55:29;33.00;;;15.77;;
3433;SDS011;1730;41.932;25.548;2023-01-24T00:57:55;31.07;;;16.67;;
3433;SDS011;1730;41.932;25.548;2023-01-24T01:00:21;32.03;;;16.20;;
3433;SDS011;1730;41.932;25.548;2023-01-24T01:02:48;27.33;;;14.60;;
3433;SDS011;1730;41.932;25.548;2023-01-24T01:05:15;30.73;;;15.40;;
3433;SDS011;1730;41.932;25.548;2023-01-24T01:07:42;25.80;;;14.57;;
3433;SDS011;1730;41.932;25.548;2023-01-24T01:10:07;30.03;;;15.37;;
3433;SDS011;1730;41.932;25.548;2023-01-24T01:12:34;25.40;;;14.50;;
3433;SDS011;1730;41.932;25.548;2023-01-24T01:15:00;33.57;;;13.07;;
3433;SDS011;1730;41.932;25.548;2023-01-24T01:17:26;25.23;;;13.63;;
3433;SDS011;1730;41.932;25.548;2023-01-24T01:19:52;28.30;;;12.63;;
3433;SDS011;1730;41.932;25.548;2023-01-24T01:22:18;22.40;;;13.57;;
3433;SDS011;1730;41.932;25.548;2023-01-24T01:24:45;27.83;;;13.20;;
3433;SDS011;1730;41.932;25.548;2023-01-24T01:27:11;29.93;;;14.47;;
3433;SDS011;1730;41.932;25.548;2023-01-24T01:29:37;23.43;;;12.90;;
3433;SDS011;1730;41.932;25.548;2023-01-24T01:32:03;28.30;;;15.70;;
3433;SDS011;1730;41.932;25.548;2023-01-24T01:34:28;26.90;;;14.90;;
3433;SDS011;1730;41.932;25.548;2023-01-24T01:36:55;39.07;;;15.20;;
3433;SDS011;1730;41.932;25.548;2023-01-24T01:39:21;26.53;;;13.20;;
3433;SDS011;1730;41.932;25.548;2023-01-24T01:41:47;22.37;;;11.77;;
3433;SDS011;1730;41.932;25.548;2023-01-24T01:44:19;28.23;;;14.33;;
3433;SDS011;1730;41.932;25.548;2023-01-24T01:47:15;25.80;;;14.80;;
3433;SDS011;1730;41.932;25.548;2023-01-24T01:49:51;27.90;;;13.83;;
3433;SDS011;1730;41.932;25.548;2023-01-24T01:52:19;30.83;;;14.17;;
3433;SDS011;1730;41.932;25.548;2023-01-24T01:54:47;26.30;;;13.50;;
3433;SDS011;1730;41.932;25.548;2023-01-24T01:57:16;24.67;;;13.67;;
3433;SDS011;1730;41.932;25.548;2023-01-24T01:59:48;29.00;;;13.10;;
3433;SDS011;1730;41.932;25.548;2023-01-24T02:02:19;29.37;;;13.70;;
3433;SDS011;1730;41.932;25.548;2023-01-24T02:04:48;20.93;;;13.67;;
3433;SDS011;1730;41.932;25.548;2023-01-24T02:07:27;24.90;;;14.03;;
3433;SDS011;1730;41.932;25.548;2023-01-24T02:09:57;25.50;;;13.90;;
3433;SDS011;1730;41.932;25.548;2023-01-24T02:12:28;34.93;;;14.00;;
3433;SDS011;1730;41.932;25.548;2023-01-24T02:15:02;26.27;;;14.13;;
3433;SDS011;1730;41.932;25.548;2023-01-24T02:17:50;25.23;;;14.40;;
3433;SDS011;1730;41.932;25.548;2023-01-24T02:28:24;29.97;;;14.77;;
3433;SDS011;1730;41.932;25.548;2023-01-24T02:30:50;22.53;;;13.07;;
3433;SDS011;1730;41.932;25.548;2023-01-24T02:33:17;28.43;;;15.00;;
3433;SDS011;1730;41.932;25.548;2023-01-24T02:35:45;32.10;;;15.27;;
3433;SDS011;1730;41.932;25.548;2023-01-24T02:38:19;31.33;;;14.47;;
3433;SDS011;1730;41.932;25.548;2023-01-24T02:40:49;28.67;;;13.97;;
3433;SDS011;1730;41.932;25.548;2023-01-24T02:43:18;38.17;;;15.30;;
3433;SDS011;1730;41.932;25.548;2023-01-24T02:45:45;29.40;;;13.90;;
3433;SDS011;1730;41.932;25.548;2023-01-24T02:48:11;26.53;;;13.40;;
3433;SDS011;1730;41.932;25.548;2023-01-24T02:50:37;21.40;;;12.23;;
3433;SDS011;1730;41.932;25.548;2023-01-24T02:53:21;27.23;;;13.10;;
3433;SDS011;1730;41.932;25.548;2023-01-24T02:56:00;28.40;;;13.87;;
3433;SDS011;1730;41.932;25.548;2023-01-24T02:58:46;23.37;;;12.90;;
3433;SDS011;1730;41.932;25.548;2023-01-24T03:01:12;20.70;;;13.10;;
3433;SDS011;1730;41.932;25.548;2023-01-24T03:03:42;23.43;;;12.93;;
3433;SDS011;1730;41.932;25.548;2023-01-24T03:06:09;25.20;;;12.77;;
3433;SDS011;1730;41.932;25.548;2023-01-24T03:08:35;32.87;;;14.70;;
3433;SDS011;1730;41.932;25.548;2023-01-24T03:11:02;24.20;;;13.63;;
3433;SDS011;1730;41.932;25.548;2023-01-24T03:13:28;20.50;;;12.40;;
3433;SDS011;1730;41.932;25.548;2023-01-24T03:16:13;25.47;;;13.07;;
3433;SDS011;1730;41.932;25.548;2023-01-24T03:18:58;22.43;;;12.43;;
3433;SDS011;1730;41.932;25.548;2023-01-24T03:21:42;24.30;;;12.70;;
3433;SDS011;1730;41.932;25.548;2023-01-24T03:24:27;21.20;;;12.30;;
3433;SDS011;1730;41.932;25.548;2023-01-24T03:27:11;25.43;;;12.20;;
3433;SDS011;1730;41.932;25.548;2023-01-24T03:29:56;20.57;;;12.20;;
3433;SDS011;1730;41.932;25.548;2023-01-24T03:32:41;19.97;;;11.80;;
3433;SDS011;1730;41.932;25.548;2023-01-24T03:35:25;33.37;;;13.57;;
3433;SDS011;1730;41.932;25.548;2023-01-24T03:37:51;22.40;;;12.33;;
3433;SDS011;1730;41.932;25.548;2023-01-24T03:40:35;23.60;;;11.90;;
3433;SDS011;1730;41.932;25.548;2023-01-24T03:43:01;23.27;;;12.93;;
3433;SDS011;1730;41.932;25.548;2023-01-24T03:45:28;23.80;;;13.33;;
3433;SDS011;1730;41.932;25.548;2023-01-24T03:47:57;21.93;;;12.73;;
3433;SDS011;1730;41.932;25.548;2023-01-24T03:50:36;20.53;;;11.40;;
3433;SDS011;1730;41.932;25.548;2023-01-24T03:53:22;20.50;;;11.13;;
3433;SDS011;1730;41.932;25.548;2023-01-24T03:55:53;22.03;;;10.97;;
3433;SDS011;1730;41.932;25.548;2023-01-24T03:58:21;19.50;;;11.80;;
3433;SDS011;1730;41.932;25.548;2023-01-24T04:00:47;24.50;;;13.00;;
3433;SDS011;1730;41.932;25.548;2023-01-24T04:03:13;18.70;;;10.83;;
3433;SDS011;1730;41.932;25.548;2023-01-24T04:05:38;19.17;;;10.80;;
3433;SDS011;1730;41.932;25.548;2023-01-24T04:08:04;19.00;;;11.57;;
3433;SDS011;1730;41.932;25.548;2023-01-24T04:10:30;27.47;;;14.20;;
3433;SDS011;1730;41.932;25.548;2023-01-24T04:12:56;13.27;;;9.67;;
3433;SDS011;1730;41.932;25.548;2023-01-24T04:15:23;23.93;;;11.27;;
3433;SDS011;1730;41.932;25.548;2023-01-24T04:17:53;19.67;;;10.77;;
3433;SDS011;1730;41.932;25.548;2023-01-24T04:20:21;20.93;;;12.37;;
3433;SDS011;1730;41.932;25.548;2023-01-24T04:22:48;16.47;;;9.40;;
3433;SDS011;1730;41.932;25.548;2023-01-24T04:25:13;18.10;;;10.63;;
3433;SDS011;1730;41.932;25.548;2023-01-24T04:27:40;14.50;;;9.63;;
3433;SDS011;1730;41.932;25.548;2023-01-24T04:30:06;16.40;;;10.10;;
3433;SDS011;1730;41.932;25.548;2023-01-24T04:32:34;23.03;;;11.40;;
3433;SDS011;1730;41.932;25.548;2023-01-24T04:35:00;16.37;;;11.40;;
3433;SDS011;1730;41.932;25.548;2023-01-24T04:37:28;18.93;;;10.60;;
3433;SDS011;1730;41.932;25.548;2023-01-24T04:39:54;20.20;;;12.27;;
3433;SDS011;1730;41.932;25.548;2023-01-24T04:42:20;18.33;;;11.50;;
3433;SDS011;1730;41.932;25.548;2023-01-24T04:44:46;33.10;;;15.00;;
3433;SDS011;1730;41.932;25.548;2023-01-24T04:47:11;23.67;;;14.63;;
3433;SDS011;1730;41.932;25.548;2023-01-24T04:49:37;22.37;;;13.40;;
3433;SDS011;1730;41.932;25.548;2023-01-24T04:52:03;21.00;;;13.97;;
3433;SDS011;1730;41.932;25.548;2023-01-24T04:54:29;17.93;;;11.10;;
3433;SDS011;1730;41.932;25.548;2023-01-24T04:56:54;18.97;;;12.33;;
3433;SDS011;1730;41.932;25.548;2023-01-24T04:59:20;22.43;;;14.17;;
3433;SDS011;1730;41.932;25.548;2023-01-24T05:01:45;21.47;;;14.50;;
3433;SDS011;1730;41.932;25.548;2023-01-24T05:04:11;18.27;;;11.50;;
3433;SDS011;1730;41.932;25.548;2023-01-24T05:06:36;27.13;;;11.90;;
3433;SDS011;1730;41.932;25.548;2023-01-24T05:09:02;17.83;;;12.30;;
3433;SDS011;1730;41.932;25.548;2023-01-24T05:11:28;22.57;;;14.80;;
3433;SDS011;1730;41.932;25.548;2023-01-24T05:13:54;21.60;;;12.53;;
3433;SDS011;1730;41.932;25.548;2023-01-24T05:16:19;22.23;;;12.57;;
3433;SDS011;1730;41.932;25.548;2023-01-24T05:18:45;22.90;;;14.97;;
3433;SDS011;1730;41.932;25.548;2023-01-24T05:21:11;20.30;;;13.43;;
3433;SDS011;1730;41.932;25.548;2023-01-24T05:23:39;22.00;;;11.73;;
3433;SDS011;1730;41.932;25.548;2023-01-24T05:26:05;25.30;;;13.83;;
3433;SDS011;1730;41.932;25.548;2023-01-24T05:28:31;23.67;;;14.10;;
3433;SDS011;1730;41.932;25.548;2023-01-24T05:31:00;25.17;;;15.57;;
3433;SDS011;1730;41.932;25.548;2023-01-24T05:33:27;20.80;;;13.53;;
3433;SDS011;1730;41.932;25.548;2023-01-24T05:35:56;26.20;;;15.23;;
3433;SDS011;1730;41.932;25.548;2023-01-24T05:38:25;25.17;;;16.57;;
3433;SDS011;1730;41.932;25.548;2023-01-24T05:40:51;27.43;;;13.67;;
3433;SDS011;1730;41.932;25.548;2023-01-24T05:43:17;24.33;;;14.90;;
3433;SDS011;1730;41.932;25.548;2023-01-24T05:45:42;21.63;;;14.30;;
3433;SDS011;1730;41.932;25.548;2023-01-24T05:48:08;27.00;;;14.33;;
3433;SDS011;1730;41.932;25.548;2023-01-24T05:50:35;22.00;;;13.47;;
3433;SDS011;1730;41.932;25.548;2023-01-24T05:53:02;23.10;;;14.40;;
3433;SDS011;1730;41.932;25.548;2023-01-24T05:55:28;22.97;;;14.60;;
3433;SDS011;1730;41.932;25.548;2023-01-24T05:57:53;22.47;;;15.30;;
3433;SDS011;1730;41.932;25.548;2023-01-24T06:00:19;29.97;;;19.30;;
3433;SDS011;1730;41.932;25.548;2023-01-24T06:02:45;22.63;;;13.70;;
3433;SDS011;1730;41.932;25.548;2023-01-24T06:05:11;22.47;;;14.00;;
3433;SDS011;1730;41.932;25.548;2023-01-24T06:07:36;19.60;;;13.27;;
3433;SDS011;1730;41.932;25.548;2023-01-24T06:10:04;24.90;;;13.30;;
3433;SDS011;1730;41.932;25.548;2023-01-24T06:12:30;26.00;;;14.50;;
3433;SDS011;1730;41.932;25.548;2023-01-24T06:14:55;20.93;;;13.63;;
3433;SDS011;1730;41.932;25.548;2023-01-24T06:17:21;24.50;;;15.87;;
3433;SDS011;1730;41.932;25.548;2023-01-24T06:19:47;21.90;;;12.60;;
3433;SDS011;1730;41.932;25.548;2023-01-24T06:22:18;22.37;;;13.60;;
3433;SDS011;1730;41.932;25.548;2023-01-24T06:24:50;23.23;;;12.43;;
3433;SDS011;1730;41.932;25.548;2023-01-24T06:27:17;20.07;;;12.50;;
3433;SDS011;1730;41.932;25.548;2023-01-24T06:29:42;18.50;;;12.47;;
3433;SDS011;1730;41.932;25.548;2023-01-24T06:37:45;26.30;;;14.77;;
3433;SDS011;1730;41.932;25.548;2023-01-24T06:40:14;22.30;;;13.10;;
3433;SDS011;1730;41.932;25.548;2023-01-24T06:42:44;29.80;;;15.97;;
3433;SDS011;1730;41.932;25.548;2023-01-24T06:45:11;23.60;;;14.60;;
3433;SDS011;1730;41.932;25.548;2023-01-24T06:47:37;29.83;;;18.53;;
3433;SDS011;1730;41.932;25.548;2023-01-24T06:50:03;26.80;;;16.03;;
3433;SDS011;1730;41.932;25.548;2023-01-24T06:52:32;24.47;;;14.80;;
3433;SDS011;1730;41.932;25.548;2023-01-24T06:54:57;30.40;;;14.37;;
3433;SDS011;1730;41.932;25.548;2023-01-24T06:57:23;21.70;;;13.37;;
3433;SDS011;1730;41.932;25.548;2023-01-24T06:59:49;19.07;;;11.63;;
3433;SDS011;1730;41.932;25.548;2023-01-24T07:02:15;22.00;;;13.13;;
3433;SDS011;1730;41.932;25.548;2023-01-24T07:04:41;19.40;;;11.73;;
3433;SDS011;1730;41.932;25.548;2023-01-24T07:07:07;23.07;;;12.93;;
3433;SDS011;1730;41.932;25.548;2023-01-24T07:09:32;18.80;;;12.60;;
3433;SDS011;1730;41.932;25.548;2023-01-24T07:11:58;23.73;;;11.80;;
3433;SDS011;1730;41.932;25.548;2023-01-24T07:14:24;21.00;;;12.77;;
3433;SDS011;1730;41.932;25.548;2023-01-24T07:16:50;21.60;;;12.77;;
3433;SDS011;1730;41.932;25.548;2023-01-24T07:19:17;22.73;;;13.90;;
3433;SDS011;1730;41.932;25.548;2023-01-24T07:21:45;25.60;;;15.50;;
3433;SDS011;1730;41.932;25.548;2023-01-24T07:24:12;23.10;;;13.37;;
3433;SDS011;1730;41.932;25.548;2023-01-24T07:26:43;22.67;;;12.73;;
3433;SDS011;1730;41.932;25.548;2023-01-24T07:29:09;26.87;;;15.60;;
3433;SDS011;1730;41.932;25.548;2023-01-24T07:31:34;27.43;;;16.23;;
3433;SDS011;1730;41.932;25.548;2023-01-24T07:34:01;22.97;;;12.90;;
3433;SDS011;1730;41.932;25.548;2023-01-24T07:36:26;23.30;;;14.87;;
3433;SDS011;1730;41.932;25.548;2023-01-24T07:38:52;24.30;;;14.80;;
3433;SDS011;1730;41.932;25.548;2023-01-24T07:41:20;25.70;;;13.17;;
3433;SDS011;1730;41.932;25.548;2023-01-24T07:43:45;20.70;;;11.93;;
3433;SDS011;1730;41.932;25.548;2023-01-24T07:46:11;21.47;;;12.70;;
3433;SDS011;1730;41.932;25.548;2023-01-24T07:48:37;22.83;;;13.10;;
3433;SDS011;1730;41.932;25.548;2023-01-24T07:51:25;31.40;;;15.87;;
3433;SDS011;1730;41.932;25.548;2023-01-24T07:53:55;24.33;;;13.57;;
3433;SDS011;1730;41.932;25.548;2023-01-24T07:56:21;32.73;;;15.43;;
3433;SDS011;1730;41.932;25.548;2023-01-24T07:58:48;19.80;;;13.10;;
3433;SDS011;1730;41.932;25.548;2023-01-24T08:01:17;18.33;;;11.30;;
3433;SDS011;1730;41.932;25.548;2023-01-24T08:03:43;22.13;;;13.70;;
3433;SDS011;1730;41.932;25.548;2023-01-24T08:06:09;19.60;;;12.23;;
3433;SDS011;1730;41.932;25.548;2023-01-24T08:08:35;22.57;;;13.20;;
3433;SDS011;1730;41.932;25.548;2023-01-24T08:11:04;27.37;;;16.10;;
3433;SDS011;1730;41.932;25.548;2023-01-24T08:13:30;32.70;;;17.77;;
3433;SDS011;1730;41.932;25.548;2023-01-24T08:15:59;29.03;;;17.03;;
3433;SDS011;1730;41.932;25.548;2023-01-24T08:18:26;26.50;;;15.70;;
3433;SDS011;1730;41.932;25.548;2023-01-24T08:20:55;25.43;;;15.20;;
3433;SDS011;1730;41.932;25.548;2023-01-24T08:23:34;23.37;;;15.47;;
3433;SDS011;1730;41.932;25.548;2023-01-24T08:26:05;28.20;;;15.73;;
3433;SDS011;1730;41.932;25.548;2023-01-24T08:28:31;41.13;;;23.73;;
3433;SDS011;1730;41.932;25.548;2023-01-24T08:30:58;31.83;;;18.60;;
3433;SDS011;1730;41.932;25.548;2023-01-24T08:33:24;29.67;;;17.60;;
3433;SDS011;1730;41.932;25.548;2023-01-24T08:35:50;30.27;;;17.63;;
3433;SDS011;1730;41.932;25.548;2023-01-24T08:38:18;18.47;;;11.50;;
3433;SDS011;1730;41.932;25.548;2023-01-24T08:40:44;17.13;;;11.90;;
3433;SDS011;1730;41.932;25.548;2023-01-24T08:43:10;24.87;;;15.23;;
3433;SDS011;1730;41.932;25.548;2023-01-24T08:45:38;19.57;;;14.20;;
3433;SDS011;1730;41.932;25.548;2023-01-24T08:48:04;17.23;;;11.23;;
3433;SDS011;1730;41.932;25.548;2023-01-24T08:50:29;26.27;;;14.60;;
3433;SDS011;1730;41.932;25.548;2023-01-24T08:52:55;29.10;;;14.53;;
3433;SDS011;1730;41.932;25.548;2023-01-24T08:55:25;24.57;;;14.40;;
3433;SDS011;1730;41.932;25.548;2023-01-24T08:57:58;19.30;;;13.13;;
3433;SDS011;1730;41.932;25.548;2023-01-24T09:00:34;22.87;;;12.33;;
3433;SDS011;1730;41.932;25.548;2023-01-24T09:03:00;21.47;;;13.00;;
3433;SDS011;1730;41.932;25.548;2023-01-24T09:05:29;16.77;;;9.93;;
3433;SDS011;1730;41.932;25.548;2023-01-24T09:07:55;19.70;;;12.97;;
3433;SDS011;1730;41.932;25.548;2023-01-24T09:10:24;30.83;;;14.50;;
3433;SDS011;1730;41.932;25.548;2023-01-24T09:13:02;22.30;;;12.57;;
3433;SDS011;1730;41.932;25.548;2023-01-24T09:15:29;16.00;;;10.93;;
3433;SDS011;1730;41.932;25.548;2023-01-24T09:17:55;21.73;;;13.70;;
3433;SDS011;1730;41.932;25.548;2023-01-24T09:20:22;20.33;;;13.37;;
3433;SDS011;1730;41.932;25.548;2023-01-24T09:22:48;23.33;;;14.20;;
3433;SDS011;1730;41.932;25.548;2023-01-24T09:25:13;20.33;;;13.30;;
3433;SDS011;1730;41.932;25.548;2023-01-24T09:27:40;19.33;;;12.07;;
3433;SDS011;1730;41.932;25.548;2023-01-24T09:30:08;16.67;;;11.03;;
3433;SDS011;1730;41.932;25.548;2023-01-24T09:32:35;16.00;;;12.60;;
3433;SDS011;1730;41.932;25.548;2023-01-24T09:35:21;20.07;;;13.93;;
3433;SDS011;1730;41.932;25.548;2023-01-24T09:37:50;17.67;;;12.20;;
3433;SDS011;1730;41.932;25.548;2023-01-24T09:44:53;23.63;;;13.33;;
3433;SDS011;1730;41.932;25.548;2023-01-24T09:48:46;19.00;;;12.53;;
3433;SDS011;1730;41.932;25.548;2023-01-24T09:51:31;13.37;;;9.50;;
3433;SDS011;1730;41.932;25.548;2023-01-24T09:54:05;13.67;;;9.10;;
3433;SDS011;1730;41.932;25.548;2023-01-24T10:00:52;18.30;;;10.97;;
3433;SDS011;1730;41.932;25.548;2023-01-24T10:03:34;22.60;;;12.20;;
3433;SDS011;1730;41.932;25.548;2023-01-24T10:06:09;19.87;;;12.03;;
3433;SDS011;1730;41.932;25.548;2023-01-24T10:08:56;20.73;;;10.87;;
3433;SDS011;1730;41.932;25.548;2023-01-24T10:23:25;14.57;;;10.10;;
3433;SDS011;1730;41.932;25.548;2023-01-24T10:26:34;12.10;;;8.37;;
3433;SDS011;1730;41.932;25.548;2023-01-24T10:29:22;13.17;;;9.00;;
3433;SDS011;1730;41.932;25.548;2023-01-24T10:40:17;9.50;;;7.10;;
3433;SDS011;1730;41.932;25.548;2023-01-24T10:42:49;14.70;;;9.10;;
3433;SDS011;1730;41.932;25.548;2023-01-24T10:48:15;11.20;;;7.50;;
3433;SDS011;1730;41.932;25.548;2023-01-24T10:51:16;14.67;;;9.73;;
3433;SDS011;1730;41.932;25.548;2023-01-24T10:53:43;11.77;;;8.53;;
3433;SDS011;1730;41.932;25.548;2023-01-24T10:56:10;11.20;;;8.50;;
3433;SDS011;1730;41.932;25.548;2023-01-24T11:01:20;9.53;;;8.30;;
3433;SDS011;1730;41.932;25.548;2023-01-24T11:03:48;12.87;;;7.57;;
3433;SDS011;1730;41.932;25.548;2023-01-24T11:06:23;11.33;;;8.00;;
3433;SDS011;1730;41.932;25.548;2023-01-24T11:08:53;12.13;;;7.87;;
3433;SDS011;1730;41.932;25.548;2023-01-24T11:11:42;15.50;;;9.53;;
3433;SDS011;1730;41.932;25.548;2023-01-24T11:14:48;11.27;;;8.83;;
3433;SDS011;1730;41.932;25.548;2023-01-24T11:17:27;13.23;;;9.10;;
3433;SDS011;1730;41.932;25.548;2023-01-24T11:20:09;11.90;;;8.97;;
3433;SDS011;1730;41.932;25.548;2023-01-24T11:23:14;13.27;;;8.60;;
3433;SDS011;1730;41.932;25.548;2023-01-24T11:25:59;12.83;;;7.10;;
3433;SDS011;1730;41.932;25.548;2023-01-24T11:28:30;12.90;;;8.77;;
3433;SDS011;1730;41.932;25.548;2023-01-24T11:31:01;12.63;;;8.90;;
3433;SDS011;1730;41.932;25.548;2023-01-24T11:36:57;7.00;;;6.30;;
3433;SDS011;1730;41.932;25.548;2023-01-24T11:39:54;9.70;;;8.30;;
3433;SDS011;1730;41.932;25.548;2023-01-24T11:48:05;15.60;;;9.83;;
3433;SDS011;1730;41.932;25.548;2023-01-24T12:07:06;13.27;;;9.20;;
3433;SDS011;1730;41.932;25.548;2023-01-24T12:12:42;7.40;;;6.60;;
3433;SDS011;1730;41.932;25.548;2023-01-24T12:18:14;11.27;;;7.17;;
3433;SDS011;1730;41.932;25.548;2023-01-24T12:21:22;15.83;;;6.80;;
3433;SDS011;1730;41.932;25.548;2023-01-24T12:23:55;8.70;;;7.20;;
3433;SDS011;1730;41.932;25.548;2023-01-24T12:26:28;11.50;;;7.60;;
3433;SDS011;1730;41.932;25.548;2023-01-24T12:34:20;15.90;;;9.37;;
3433;SDS011;1730;41.932;25.548;2023-01-24T12:39:44;16.70;;;10.60;;
3433;SDS011;1730;41.932;25.548;2023-01-24T12:42:28;18.13;;;10.93;;
3433;SDS011;1730;41.932;25.548;2023-01-24T12:45:07;17.30;;;8.97;;
3433;SDS011;1730;41.932;25.548;2023-01-24T12:48:24;12.57;;;9.00;;
3433;SDS011;1730;41.932;25.548;2023-01-24T12:51:41;12.63;;;8.77;;
3433;SDS011;1730;41.932;25.548;2023-01-24T12:53:59;14.33;;;9.50;;
3433;SDS011;1730;41.932;25.548;2023-01-24T12:59:06;12.00;;;9.07;;
3433;SDS011;1730;41.932;25.548;2023-01-24T13:01:39;18.10;;;11.17;;
3433;SDS011;1730;41.932;25.548;2023-01-24T13:47:33;17.97;;;10.30;;
3433;SDS011;1730;41.932;25.548;2023-01-24T13:56:24;10.80;;;8.33;;
3433;SDS011;1730;41.932;25.548;2023-01-24T13:58:51;16.63;;;10.37;;
3433;SDS011;1730;41.932;25.548;2023-01-24T14:01:18;11.73;;;9.30;;
3433;SDS011;1730;41.932;25.548;2023-01-24T14:07:26;14.10;;;9.13;;
3433;SDS011;1730;41.932;25.548;2023-01-24T14:10:00;18.00;;;12.30;;
3433;SDS011;1730;41.932;25.548;2023-01-24T14:12:37;13.57;;;9.60;;
3433;SDS011;1730;41.932;25.548;2023-01-24T14:15:05;16.03;;;11.00;;
3433;SDS011;1730;41.932;25.548;2023-01-24T14:23:11;19.80;;;10.80;;
3433;SDS011;1730;41.932;25.548;2023-01-24T14:28:31;13.27;;;10.20;;
3433;SDS011;1730;41.932;25.548;2023-01-24T14:31:04;29.60;;;16.50;;
3433;SDS011;1730;41.932;25.548;2023-01-24T14:36:32;17.10;;;11.40;;
3433;SDS011;1730;41.932;25.548;2023-01-24T14:39:12;15.33;;;11.10;;
3433;SDS011;1730;41.932;25.548;2023-01-24T14:41:54;23.20;;;11.57;;
3433;SDS011;1730;41.932;25.548;2023-01-24T14:44:28;24.07;;;12.00;;
3433;SDS011;1730;41.932;25.548;2023-01-24T14:47:17;20.23;;;12.80;;
3433;SDS011;1730;41.932;25.548;2023-01-24T14:49:49;25.20;;;11.90;;
3433;SDS011;1730;41.932;25.548;2023-01-24T14:57:51;13.00;;;8.53;;
3433;SDS011;1730;41.932;25.548;2023-01-24T15:00:17;8.50;;;7.27;;
3433;SDS011;1730;41.932;25.548;2023-01-24T15:02:54;13.27;;;8.03;;
3433;SDS011;1730;41.932;25.548;2023-01-24T15:07:50;10.00;;;7.53;;
3433;SDS011;1730;41.932;25.548;2023-01-24T15:16:07;19.77;;;10.73;;
3433;SDS011;1730;41.932;25.548;2023-01-24T15:18:44;12.50;;;8.53;;
3433;SDS011;1730;41.932;25.548;2023-01-24T15:21:16;11.87;;;7.70;;
3433;SDS011;1730;41.932;25.548;2023-01-24T15:23:47;11.63;;;8.00;;
3433;SDS011;1730;41.932;25.548;2023-01-24T15:28:56;12.70;;;9.87;;
3433;SDS011;1730;41.932;25.548;2023-01-24T15:31:23;17.30;;;10.77;;
3433;SDS011;1730;41.932;25.548;2023-01-24T15:33:58;10.70;;;8.60;;
3433;SDS011;1730;41.932;25.548;2023-01-24T15:36:32;17.67;;;10.30;;
3433;SDS011;1730;41.932;25.548;2023-01-24T15:38:59;18.17;;;12.20;;
3433;SDS011;1730;41.932;25.548;2023-01-24T15:41:27;16.67;;;11.80;;
3433;SDS011;1730;41.932;25.548;2023-01-24T15:44:13;13.53;;;9.40;;
3433;SDS011;1730;41.932;25.548;2023-01-24T15:46:42;20.90;;;9.90;;
3433;SDS011;1730;41.932;25.548;2023-01-24T15:49:34;21.17;;;13.40;;
3433;SDS011;1730;41.932;25.548;2023-01-24T15:54:33;16.17;;;11.03;;
3433;SDS011;1730;41.932;25.548;2023-01-24T15:57:01;23.17;;;13.20;;
3433;SDS011;1730;41.932;25.548;2023-01-24T15:59:28;15.00;;;10.50;;
3433;SDS011;1730;41.932;25.548;2023-01-24T16:01:55;28.17;;;12.80;;
3433;SDS011;1730;41.932;25.548;2023-01-24T16:04:21;24.10;;;14.60;;
3433;SDS011;1730;41.932;25.548;2023-01-24T16:06:48;25.83;;;16.80;;
3433;SDS011;1730;41.932;25.548;2023-01-24T16:09:14;28.70;;;16.10;;
3433;SDS011;1730;41.932;25.548;2023-01-24T16:11:40;30.13;;;19.23;;
3433;SDS011;1730;41.932;25.548;2023-01-24T16:14:43;24.50;;;14.07;;
3433;SDS011;1730;41.932;25.548;2023-01-24T16:17:01;20.63;;;11.07;;
3433;SDS011;1730;41.932;25.548;2023-01-24T16:19:28;24.03;;;10.80;;
3433;SDS011;1730;41.932;25.548;2023-01-24T16:21:53;20.97;;;11.40;;
3433;SDS011;1730;41.932;25.548;2023-01-24T16:24:19;21.17;;;12.10;;
3433;SDS011;1730;41.932;25.548;2023-01-24T16:26:45;27.10;;;13.07;;
3433;SDS011;1730;41.932;25.548;2023-01-24T16:29:14;16.43;;;10.50;;
3433;SDS011;1730;41.932;25.548;2023-01-24T16:31:42;16.67;;;11.80;;
3433;SDS011;1730;41.932;25.548;2023-01-24T16:34:09;17.40;;;11.83;;
3433;SDS011;1730;41.932;25.548;2023-01-24T16:36:35;18.77;;;12.63;;
3433;SDS011;1730;41.932;25.548;2023-01-24T16:39:01;26.57;;;13.10;;
3433;SDS011;1730;41.932;25.548;2023-01-24T16:41:29;23.40;;;12.13;;
3433;SDS011;1730;41.932;25.548;2023-01-24T16:43:55;15.83;;;11.20;;
3433;SDS011;1730;41.932;25.548;2023-01-24T16:46:20;18.03;;;12.37;;
3433;SDS011;1730;41.932;25.548;2023-01-24T16:48:47;26.90;;;17.30;;
3433;SDS011;1730;41.932;25.548;2023-01-24T16:51:16;21.87;;;14.97;;
3433;SDS011;1730;41.932;25.548;2023-01-24T16:58:10;21.13;;;13.00;;
3433;SDS011;1730;41.932;25.548;2023-01-24T17:00:37;13.97;;;10.83;;
3433;SDS011;1730;41.932;25.548;2023-01-24T17:03:04;22.17;;;14.83;;
3433;SDS011;1730;41.932;25.548;2023-01-24T17:05:30;25.70;;;15.03;;
3433;SDS011;1730;41.932;25.548;2023-01-24T17:07:56;19.50;;;14.07;;
3433;SDS011;1730;41.932;25.548;2023-01-24T17:10:22;19.97;;;13.57;;
3433;SDS011;1730;41.932;25.548;2023-01-24T17:12:49;15.23;;;11.40;;
3433;SDS011;1730;41.932;25.548;2023-01-24T17:15:14;18.30;;;12.97;;
3433;SDS011;1730;41.932;25.548;2023-01-24T17:17:41;26.93;;;14.67;;
3433;SDS011;1730;41.932;25.548;2023-01-24T17:20:10;23.97;;;16.63;;
3433;SDS011;1730;41.932;25.548;2023-01-24T17:22:39;20.20;;;15.20;;
3433;SDS011;1730;41.932;25.548;2023-01-24T17:25:05;24.30;;;17.67;;
3433;SDS011;1730;41.932;25.548;2023-01-24T17:27:32;19.40;;;14.33;;
3433;SDS011;1730;41.932;25.548;2023-01-24T17:29:57;16.80;;;12.50;;
3433;SDS011;1730;41.932;25.548;2023-01-24T17:32:23;22.77;;;14.80;;
3433;SDS011;1730;41.932;25.548;2023-01-24T17:34:49;25.93;;;15.40;;
3433;SDS011;1730;41.932;25.548;2023-01-24T17:37:14;25.13;;;15.80;;
3433;SDS011;1730;41.932;25.548;2023-01-24T17:39:40;27.00;;;16.23;;
3433;SDS011;1730;41.932;25.548;2023-01-24T17:42:05;21.03;;;14.77;;
3433;SDS011;1730;41.932;25.548;2023-01-24T17:44:31;23.40;;;14.50;;
3433;SDS011;1730;41.932;25.548;2023-01-24T17:46:56;17.50;;;11.97;;
3433;SDS011;1730;41.932;25.548;2023-01-24T17:49:22;17.23;;;11.90;;
3433;SDS011;1730;41.932;25.548;2023-01-24T17:51:48;14.23;;;10.63;;
3433;SDS011;1730;41.932;25.548;2023-01-24T17:54:14;17.23;;;12.47;;